sensor_id;sensor_type;location;lat;lon;timestamp;pressure;altitude;pressure_sealevel;temperature;humidity
80627;BME280;69982;51.758;5.784;2023-09-19T00:00:22;100707.65;;;16.42;73.11
80627;BME280;69982;51.758;5.784;2023-09-19T00:03:10;100712.85;;;16.47;73.00
80627;BME280;69982;51.758;5.784;2023-09-19T00:05:39;100707.33;;;16.47;72.88
80627;BME280;69982;51.758;5.784;2023-09-19T00:08:07;100719.02;;;16.51;73.15
80627;BME280;69982;51.758;5.784;2023-09-19T00:10:35;100723.31;;;16.53;73.26
80627;BME280;69982;51.758;5.784;2023-09-19T00:13:03;100716.23;;;16.51;73.29
80627;BME280;69982;51.758;5.784;2023-09-19T00:15:40;100728.38;;;16.55;73.48
80627;BME280;69982;51.758;5.784;2023-09-19T00:18:09;100727.75;;;16.55;73.50
80627;BME280;69982;51.758;5.784;2023-09-19T00:20:37;100730.33;;;16.55;73.59
80627;BME280;69982;51.758;5.784;2023-09-19T00:23:05;100727.80;;;16.55;73.68
80627;BME280;69982;51.758;5.784;2023-09-19T00:25:35;100731.93;;;16.54;73.40
80627;BME280;69982;51.758;5.784;2023-09-19T00:28:04;100734.16;;;16.54;73.42
80627;BME280;69982;51.758;5.784;2023-09-19T00:30:32;100734.49;;;16.54;73.45
80627;BME280;69982;51.758;5.784;2023-09-19T00:33:00;100736.60;;;16.53;73.41
80627;BME280;69982;51.758;5.784;2023-09-19T00:35:30;100737.65;;;16.50;73.27
80627;BME280;69982;51.758;5.784;2023-09-19T00:37:58;100739.88;;;16.48;73.22
80627;BME280;69982;51.758;5.784;2023-09-19T00:40:26;100740.92;;;16.46;73.20
80627;BME280;69982;51.758;5.784;2023-09-19T00:42:57;100741.59;;;16.40;73.13
80627;BME280;69982;51.758;5.784;2023-09-19T00:45:27;100744.16;;;16.40;73.19
80627;BME280;69982;51.758;5.784;2023-09-19T00:47:56;100746.71;;;16.35;73.00
80627;BME280;69982;51.758;5.784;2023-09-19T00:50:26;100753.74;;;16.32;73.02
80627;BME280;69982;51.758;5.784;2023-09-19T00:52:55;100751.29;;;16.29;72.94
80627;BME280;69982;51.758;5.784;2023-09-19T00:55:25;100754.02;;;16.24;72.99
80627;BME280;69982;51.758;5.784;2023-09-19T00:57:55;100755.25;;;16.16;72.95
80627;BME280;69982;51.758;5.784;2023-09-19T01:00:23;100758.73;;;16.11;73.00
80627;BME280;69982;51.758;5.784;2023-09-19T01:02:51;100763.23;;;16.09;72.93
80627;BME280;69982;51.758;5.784;2023-09-19T01:05:20;100764.95;;;16.08;72.90
80627;BME280;69982;51.758;5.784;2023-09-19T01:07:47;100762.36;;;16.04;72.84
80627;BME280;69982;51.758;5.784;2023-09-19T01:10:18;100767.80;;;15.97;73.04
80627;BME280;69982;51.758;5.784;2023-09-19T01:13:01;100767.55;;;15.90;72.99
80627;BME280;69982;51.758;5.784;2023-09-19T01:18:29;100764.70;;;15.76;73.25
80627;BME280;69982;51.758;5.784;2023-09-19T01:21:11;100768.21;;;15.73;73.26
80627;BME280;69982;51.758;5.784;2023-09-19T01:24:16;100770.43;;;15.70;73.28
80627;BME280;69982;51.758;5.784;2023-09-19T01:27:06;100775.39;;;15.69;73.42
80627;BME280;69982;51.758;5.784;2023-09-19T01:29:44;100779.35;;;15.63;73.61
80627;BME280;69982;51.758;5.784;2023-09-19T01:32:17;100784.59;;;15.57;73.80
80627;BME280;69982;51.758;5.784;2023-09-19T01:34:52;100788.38;;;15.52;73.86
80627;BME280;69982;51.758;5.784;2023-09-19T01:37:21;100788.74;;;15.50;73.95
80627;BME280;69982;51.758;5.784;2023-09-19T01:39:56;100787.13;;;15.48;74.02
80627;BME280;69982;51.758;5.784;2023-09-19T01:42:28;100784.33;;;15.46;74.05
80627;BME280;69982;51.758;5.784;2023-09-19T01:45:11;100795.34;;;15.43;74.00
80627;BME280;69982;51.758;5.784;2023-09-19T01:47:49;100795.44;;;15.40;73.81
80627;BME280;69982;51.758;5.784;2023-09-19T01:50:30;100796.00;;;15.38;73.89
80627;BME280;69982;51.758;5.784;2023-09-19T01:53:04;100795.06;;;15.35;73.63
80627;BME280;69982;51.758;5.784;2023-09-19T01:55:43;100786.95;;;15.32;73.44
80627;BME280;69982;51.758;5.784;2023-09-19T01:58:39;100796.66;;;15.34;73.34
80627;BME280;69982;51.758;5.784;2023-09-19T02:01:12;100797.02;;;15.31;73.12
80627;BME280;69982;51.758;5.784;2023-09-19T02:03:43;100795.73;;;15.29;73.15
80627;BME280;69982;51.758;5.784;2023-09-19T02:06:16;100798.81;;;15.26;72.92
80627;BME280;69982;51.758;5.784;2023-09-19T02:08:45;100795.78;;;15.20;73.02
80627;BME280;69982;51.758;5.784;2023-09-19T02:11:14;100801.83;;;15.20;72.71
80627;BME280;69982;51.758;5.784;2023-09-19T02:13:41;100803.50;;;15.18;72.58
80627;BME280;69982;51.758;5.784;2023-09-19T02:16:10;100804.58;;;15.15;72.37
80627;BME280;69982;51.758;5.784;2023-09-19T02:18:39;100805.21;;;15.12;72.26
80627;BME280;69982;51.758;5.784;2023-09-19T02:21:07;100803.65;;;15.07;72.24
80627;BME280;69982;51.758;5.784;2023-09-19T02:23:34;100812.85;;;15.05;71.98
80627;BME280;69982;51.758;5.784;2023-09-19T02:26:02;100809.94;;;14.99;71.77
80627;BME280;69982;51.758;5.784;2023-09-19T02:28:32;100812.86;;;14.98;71.68
80627;BME280;69982;51.758;5.784;2023-09-19T02:31:00;100810.66;;;14.96;71.47
80627;BME280;69982;51.758;5.784;2023-09-19T02:33:28;100805.49;;;14.93;71.28
80627;BME280;69982;51.758;5.784;2023-09-19T02:36:00;100811.89;;;14.93;71.15
80627;BME280;69982;51.758;5.784;2023-09-19T02:38:31;100813.62;;;14.89;71.05
80627;BME280;69982;51.758;5.784;2023-09-19T02:40:58;100818.02;;;14.87;71.06
80627;BME280;69982;51.758;5.784;2023-09-19T02:43:27;100816.06;;;14.85;71.17
80627;BME280;69982;51.758;5.784;2023-09-19T02:45:55;100809.66;;;14.84;70.91
80627;BME280;69982;51.758;5.784;2023-09-19T02:48:22;100813.70;;;14.84;70.84
80627;BME280;69982;51.758;5.784;2023-09-19T02:50:50;100815.23;;;14.83;70.72
80627;BME280;69982;51.758;5.784;2023-09-19T02:53:18;100811.96;;;14.80;70.65
80627;BME280;69982;51.758;5.784;2023-09-19T02:55:46;100818.05;;;14.74;70.63
80627;BME280;69982;51.758;5.784;2023-09-19T02:58:15;100816.85;;;14.69;70.57
80627;BME280;69982;51.758;5.784;2023-09-19T03:00:42;100823.91;;;14.64;70.52
80627;BME280;69982;51.758;5.784;2023-09-19T03:03:15;100819.68;;;14.63;70.48
80627;BME280;69982;51.758;5.784;2023-09-19T03:05:44;100826.95;;;14.63;70.46
80627;BME280;69982;51.758;5.784;2023-09-19T03:08:15;100832.41;;;14.58;70.18
80627;BME280;69982;51.758;5.784;2023-09-19T03:10:46;100824.77;;;14.53;70.25
80627;BME280;69982;51.758;5.784;2023-09-19T03:13:14;100834.02;;;14.49;70.20
80627;BME280;69982;51.758;5.784;2023-09-19T03:15:42;100834.36;;;14.46;70.45
80627;BME280;69982;51.758;5.784;2023-09-19T03:18:14;100836.30;;;14.44;70.50
80627;BME280;69982;51.758;5.784;2023-09-19T03:20:42;100832.84;;;14.42;70.49
80627;BME280;69982;51.758;5.784;2023-09-19T03:23:10;100838.00;;;14.42;70.28
80627;BME280;69982;51.758;5.784;2023-09-19T03:25:38;100834.06;;;14.43;70.27
80627;BME280;69982;51.758;5.784;2023-09-19T03:28:06;100839.23;;;14.42;70.13
80627;BME280;69982;51.758;5.784;2023-09-19T03:30:34;100841.00;;;14.41;70.18
80627;BME280;69982;51.758;5.784;2023-09-19T03:33:02;100844.77;;;14.40;70.06
80627;BME280;69982;51.758;5.784;2023-09-19T03:35:32;100843.21;;;14.38;70.13
80627;BME280;69982;51.758;5.784;2023-09-19T03:37:59;100840.02;;;14.34;70.17
80627;BME280;69982;51.758;5.784;2023-09-19T03:40:27;100836.27;;;14.33;70.17
80627;BME280;69982;51.758;5.784;2023-09-19T03:42:55;100833.79;;;14.33;70.08
80627;BME280;69982;51.758;5.784;2023-09-19T03:45:22;100832.36;;;14.33;70.00
80627;BME280;69982;51.758;5.784;2023-09-19T03:47:50;100822.59;;;14.31;69.94
80627;BME280;69982;51.758;5.784;2023-09-19T03:50:18;100826.67;;;14.35;69.97
80627;BME280;69982;51.758;5.784;2023-09-19T03:52:46;100822.00;;;14.35;69.99
80627;BME280;69982;51.758;5.784;2023-09-19T03:55:14;100828.14;;;14.35;69.76
80627;BME280;69982;51.758;5.784;2023-09-19T03:57:41;100826.79;;;14.31;69.70
80627;BME280;69982;51.758;5.784;2023-09-19T04:00:09;100827.75;;;14.27;69.73
80627;BME280;69982;51.758;5.784;2023-09-19T04:02:39;100828.38;;;14.26;69.79
80627;BME280;69982;51.758;5.784;2023-09-19T04:05:07;100827.11;;;14.26;69.54
80627;BME280;69982;51.758;5.784;2023-09-19T04:07:35;100818.41;;;14.26;69.31
80627;BME280;69982;51.758;5.784;2023-09-19T04:10:03;100814.69;;;14.24;69.29
80627;BME280;69982;51.758;5.784;2023-09-19T04:12:30;100814.85;;;14.24;69.23
80627;BME280;69982;51.758;5.784;2023-09-19T04:15:00;100811.52;;;14.18;69.27
80627;BME280;69982;51.758;5.784;2023-09-19T04:17:27;100822.13;;;14.18;69.17
80627;BME280;69982;51.758;5.784;2023-09-19T04:19:55;100824.83;;;14.12;69.10
80627;BME280;69982;51.758;5.784;2023-09-19T04:22:23;100826.67;;;14.09;69.10
80627;BME280;69982;51.758;5.784;2023-09-19T04:24:51;100826.69;;;14.11;69.08
80627;BME280;69982;51.758;5.784;2023-09-19T04:27:18;100831.78;;;14.11;69.25
80627;BME280;69982;51.758;5.784;2023-09-19T04:29:46;100840.84;;;14.15;69.04
80627;BME280;69982;51.758;5.784;2023-09-19T04:32:14;100850.34;;;14.14;69.10
80627;BME280;69982;51.758;5.784;2023-09-19T04:34:44;100857.52;;;14.13;69.16
80627;BME280;69982;51.758;5.784;2023-09-19T04:37:12;100865.45;;;14.12;69.28
80627;BME280;69982;51.758;5.784;2023-09-19T04:39:42;100874.48;;;14.11;69.48
80627;BME280;69982;51.758;5.784;2023-09-19T04:42:10;100878.69;;;14.10;69.50
80627;BME280;69982;51.758;5.784;2023-09-19T04:44:41;100888.33;;;14.11;69.44
80627;BME280;69982;51.758;5.784;2023-09-19T04:47:10;100888.37;;;14.14;69.42
80627;BME280;69982;51.758;5.784;2023-09-19T04:49:39;100891.30;;;14.17;69.49
80627;BME280;69982;51.758;5.784;2023-09-19T04:52:07;100894.29;;;14.19;69.70
80627;BME280;69982;51.758;5.784;2023-09-19T04:54:35;100893.86;;;14.20;69.63
80627;BME280;69982;51.758;5.784;2023-09-19T04:57:03;100897.37;;;14.18;69.70
80627;BME280;69982;51.758;5.784;2023-09-19T04:59:33;100895.90;;;14.15;69.74
80627;BME280;69982;51.758;5.784;2023-09-19T05:02:01;100897.95;;;14.17;69.87
80627;BME280;69982;51.758;5.784;2023-09-19T05:04:29;100895.66;;;14.15;70.05
80627;BME280;69982;51.758;5.784;2023-09-19T05:06:57;100900.52;;;14.20;70.14
80627;BME280;69982;51.758;5.784;2023-09-19T05:09:25;100901.74;;;14.23;70.07
80627;BME280;69982;51.758;5.784;2023-09-19T05:11:52;100908.41;;;14.25;70.02
80627;BME280;69982;51.758;5.784;2023-09-19T05:14:20;100912.48;;;14.25;69.93
80627;BME280;69982;51.758;5.784;2023-09-19T05:16:48;100906.87;;;14.23;70.23
80627;BME280;69982;51.758;5.784;2023-09-19T05:19:16;100906.11;;;14.24;70.31
80627;BME280;69982;51.758;5.784;2023-09-19T05:21:44;100899.20;;;14.22;70.50
80627;BME280;69982;51.758;5.784;2023-09-19T05:24:12;100898.54;;;14.23;70.73
80627;BME280;69982;51.758;5.784;2023-09-19T05:26:42;100903.26;;;14.23;70.53
80627;BME280;69982;51.758;5.784;2023-09-19T05:29:09;100904.56;;;14.24;70.51
80627;BME280;69982;51.758;5.784;2023-09-19T05:31:37;100900.25;;;14.25;70.63
80627;BME280;69982;51.758;5.784;2023-09-19T05:34:08;100900.01;;;14.26;70.70
80627;BME280;69982;51.758;5.784;2023-09-19T05:36:37;100901.66;;;14.24;70.84
80627;BME280;69982;51.758;5.784;2023-09-19T05:39:07;100900.33;;;14.22;71.01
80627;BME280;69982;51.758;5.784;2023-09-19T05:41:37;100900.45;;;14.19;71.25
80627;BME280;69982;51.758;5.784;2023-09-19T05:44:07;100903.98;;;14.19;71.36
80627;BME280;69982;51.758;5.784;2023-09-19T05:46:35;100898.34;;;14.17;71.41
80627;BME280;69982;51.758;5.784;2023-09-19T05:49:03;100907.30;;;14.18;71.63
80627;BME280;69982;51.758;5.784;2023-09-19T05:51:31;100907.75;;;14.18;71.63
80627;BME280;69982;51.758;5.784;2023-09-19T05:53:59;100911.48;;;14.17;71.76
80627;BME280;69982;51.758;5.784;2023-09-19T05:56:27;100908.89;;;14.13;71.85
80627;BME280;69982;51.758;5.784;2023-09-19T05:58:54;100909.98;;;14.16;71.94
80627;BME280;69982;51.758;5.784;2023-09-19T06:01:22;100904.48;;;14.18;72.04
80627;BME280;69982;51.758;5.784;2023-09-19T06:03:50;100904.36;;;14.21;72.03
80627;BME280;69982;51.758;5.784;2023-09-19T06:06:18;100903.45;;;14.23;72.12
80627;BME280;69982;51.758;5.784;2023-09-19T06:08:46;100903.23;;;14.25;72.14
80627;BME280;69982;51.758;5.784;2023-09-19T06:11:14;100903.77;;;14.25;72.22
80627;BME280;69982;51.758;5.784;2023-09-19T06:13:42;100910.16;;;14.25;72.42
80627;BME280;69982;51.758;5.784;2023-09-19T06:16:09;100908.16;;;14.26;72.56
80627;BME280;69982;51.758;5.784;2023-09-19T06:18:37;100903.50;;;14.29;72.64
80627;BME280;69982;51.758;5.784;2023-09-19T06:21:05;100901.52;;;14.32;72.49
80627;BME280;69982;51.758;5.784;2023-09-19T06:23:35;100909.10;;;14.34;72.65
80627;BME280;69982;51.758;5.784;2023-09-19T06:26:02;100912.48;;;14.36;72.72
80627;BME280;69982;51.758;5.784;2023-09-19T06:28:34;100918.77;;;14.36;72.73
80627;BME280;69982;51.758;5.784;2023-09-19T06:31:02;100918.91;;;14.40;72.68
80627;BME280;69982;51.758;5.784;2023-09-19T06:33:30;100920.25;;;14.44;72.76
80627;BME280;69982;51.758;5.784;2023-09-19T06:35:58;100920.16;;;14.47;72.86
80627;BME280;69982;51.758;5.784;2023-09-19T06:38:27;100924.63;;;14.54;72.89
80627;BME280;69982;51.758;5.784;2023-09-19T06:40:55;100932.83;;;14.57;72.77
80627;BME280;69982;51.758;5.784;2023-09-19T06:43:24;100935.88;;;14.59;72.82
80627;BME280;69982;51.758;5.784;2023-09-19T06:45:53;100940.77;;;14.60;72.86
80627;BME280;69982;51.758;5.784;2023-09-19T06:48:22;100947.75;;;14.63;72.95
80627;BME280;69982;51.758;5.784;2023-09-19T06:50:53;100945.02;;;14.66;72.93
80627;BME280;69982;51.758;5.784;2023-09-19T06:53:22;100940.41;;;14.70;72.87
80627;BME280;69982;51.758;5.784;2023-09-19T06:55:51;100942.30;;;14.77;72.82
80627;BME280;69982;51.758;5.784;2023-09-19T06:58:19;100938.55;;;14.82;72.78
80627;BME280;69982;51.758;5.784;2023-09-19T07:00:47;100935.98;;;14.87;72.69
80627;BME280;69982;51.758;5.784;2023-09-19T07:03:17;100933.75;;;14.89;72.73
80627;BME280;69982;51.758;5.784;2023-09-19T07:05:47;100938.30;;;14.90;72.73
80627;BME280;69982;51.758;5.784;2023-09-19T07:08:15;100937.41;;;14.93;72.76
80627;BME280;69982;51.758;5.784;2023-09-19T07:10:43;100933.67;;;14.97;72.72
80627;BME280;69982;51.758;5.784;2023-09-19T07:13:16;100934.27;;;15.01;72.53
80627;BME280;69982;51.758;5.784;2023-09-19T07:15:45;100930.64;;;15.03;72.60
80627;BME280;69982;51.758;5.784;2023-09-19T07:18:17;100945.48;;;15.06;72.50
80627;BME280;69982;51.758;5.784;2023-09-19T07:20:45;100939.52;;;15.08;72.56
80627;BME280;69982;51.758;5.784;2023-09-19T07:23:17;100943.96;;;15.10;72.20
80627;BME280;69982;51.758;5.784;2023-09-19T07:25:46;100944.35;;;15.14;72.44
80627;BME280;69982;51.758;5.784;2023-09-19T07:28:14;100939.13;;;15.18;72.17
80627;BME280;69982;51.758;5.784;2023-09-19T07:30:41;100946.12;;;15.22;72.32
80627;BME280;69982;51.758;5.784;2023-09-19T07:33:09;100947.75;;;15.25;72.31
80627;BME280;69982;51.758;5.784;2023-09-19T07:35:40;100946.09;;;15.27;72.34
80627;BME280;69982;51.758;5.784;2023-09-19T07:38:08;100949.27;;;15.30;72.09
80627;BME280;69982;51.758;5.784;2023-09-19T07:40:38;100947.35;;;15.35;72.01
80627;BME280;69982;51.758;5.784;2023-09-19T07:43:06;100949.90;;;15.41;71.93
80627;BME280;69982;51.758;5.784;2023-09-19T07:45:34;100944.06;;;15.47;72.33
80627;BME280;69982;51.758;5.784;2023-09-19T07:48:02;100948.38;;;15.53;72.09
80627;BME280;69982;51.758;5.784;2023-09-19T07:50:33;100950.57;;;15.60;72.07
80627;BME280;69982;51.758;5.784;2023-09-19T07:53:04;100944.63;;;15.67;71.53
80627;BME280;69982;51.758;5.784;2023-09-19T07:55:32;100944.13;;;15.72;71.27
80627;BME280;69982;51.758;5.784;2023-09-19T07:58:01;100950.48;;;15.81;71.32
80627;BME280;69982;51.758;5.784;2023-09-19T08:00:31;100958.90;;;15.89;71.10
80627;BME280;69982;51.758;5.784;2023-09-19T08:03:02;100957.91;;;15.98;71.00
80627;BME280;69982;51.758;5.784;2023-09-19T08:05:39;100953.06;;;16.07;70.89
80627;BME280;69982;51.758;5.784;2023-09-19T08:08:08;100958.55;;;16.14;70.58
80627;BME280;69982;51.758;5.784;2023-09-19T08:10:36;100955.80;;;16.19;70.40
80627;BME280;69982;51.758;5.784;2023-09-19T08:13:07;100955.90;;;16.27;70.21
80627;BME280;69982;51.758;5.784;2023-09-19T08:15:43;100957.98;;;16.38;69.97
80627;BME280;69982;51.758;5.784;2023-09-19T08:18:11;100947.75;;;16.43;69.47
80627;BME280;69982;51.758;5.784;2023-09-19T08:20:39;100954.29;;;16.50;69.53
80627;BME280;69982;51.758;5.784;2023-09-19T08:23:09;100957.51;;;16.55;69.38
80627;BME280;69982;51.758;5.784;2023-09-19T08:25:37;100963.42;;;16.63;69.60
80627;BME280;69982;51.758;5.784;2023-09-19T08:28:06;100960.70;;;16.70;69.09
80627;BME280;69982;51.758;5.784;2023-09-19T08:30:36;100971.37;;;16.77;68.96
80627;BME280;69982;51.758;5.784;2023-09-19T08:33:04;100967.20;;;16.87;68.95
80627;BME280;69982;51.758;5.784;2023-09-19T08:35:32;100966.98;;;16.95;68.70
80627;BME280;69982;51.758;5.784;2023-09-19T08:37:59;100966.67;;;17.02;68.28
80627;BME280;69982;51.758;5.784;2023-09-19T08:40:32;100964.62;;;17.07;68.42
80627;BME280;69982;51.758;5.784;2023-09-19T08:43:01;100967.99;;;17.16;68.09
80627;BME280;69982;51.758;5.784;2023-09-19T08:45:30;100967.38;;;17.22;67.62
80627;BME280;69982;51.758;5.784;2023-09-19T08:48:09;100973.14;;;17.28;67.59
80627;BME280;69982;51.758;5.784;2023-09-19T08:51:03;100973.20;;;17.37;66.87
80627;BME280;69982;51.758;5.784;2023-09-19T08:54:09;100969.08;;;17.44;66.50
80627;BME280;69982;51.758;5.784;2023-09-19T08:56:38;100970.45;;;17.56;66.70
80627;BME280;69982;51.758;5.784;2023-09-19T08:59:07;100966.17;;;17.66;66.72
80627;BME280;69982;51.758;5.784;2023-09-19T09:01:35;100971.36;;;17.76;65.57
80627;BME280;69982;51.758;5.784;2023-09-19T09:04:04;100974.66;;;17.82;65.40
80627;BME280;69982;51.758;5.784;2023-09-19T09:06:37;100970.31;;;17.85;65.64
80627;BME280;69982;51.758;5.784;2023-09-19T09:09:07;100960.96;;;17.94;64.93
80627;BME280;69982;51.758;5.784;2023-09-19T09:11:38;100964.17;;;18.04;64.85
80627;BME280;69982;51.758;5.784;2023-09-19T09:14:07;100965.86;;;18.13;64.75
80627;BME280;69982;51.758;5.784;2023-09-19T09:16:35;100962.39;;;18.23;64.95
80627;BME280;69982;51.758;5.784;2023-09-19T09:19:03;100961.37;;;18.32;64.88
80627;BME280;69982;51.758;5.784;2023-09-19T09:21:32;100963.79;;;18.48;64.75
80627;BME280;69982;51.758;5.784;2023-09-19T09:24:26;100965.38;;;18.56;63.55
80627;BME280;69982;51.758;5.784;2023-09-19T09:26:57;100963.99;;;18.62;63.43
80627;BME280;69982;51.758;5.784;2023-09-19T09:29:44;100960.09;;;18.66;62.81
80627;BME280;69982;51.758;5.784;2023-09-19T09:32:24;100961.30;;;18.74;62.87
80627;BME280;69982;51.758;5.784;2023-09-19T09:34:54;100955.44;;;18.81;62.57
80627;BME280;69982;51.758;5.784;2023-09-19T09:37:24;100941.70;;;18.86;62.07
80627;BME280;69982;51.758;5.784;2023-09-19T09:39:59;100942.19;;;18.92;60.97
80627;BME280;69982;51.758;5.784;2023-09-19T09:42:46;100937.61;;;18.94;60.21
80627;BME280;69982;51.758;5.784;2023-09-19T09:45:21;100930.41;;;18.93;59.86
80627;BME280;69982;51.758;5.784;2023-09-19T09:48:01;100932.14;;;18.94;59.89
80627;BME280;69982;51.758;5.784;2023-09-19T09:50:48;100936.86;;;18.91;59.49
80627;BME280;69982;51.758;5.784;2023-09-19T09:53:34;100939.08;;;18.97;60.49
80627;BME280;69982;51.758;5.784;2023-09-19T09:56:05;100941.85;;;19.09;60.42
80627;BME280;69982;51.758;5.784;2023-09-19T09:58:37;100944.16;;;19.19;59.89
80627;BME280;69982;51.758;5.784;2023-09-19T10:01:08;100941.67;;;19.24;59.71
80627;BME280;69982;51.758;5.784;2023-09-19T10:03:43;100941.83;;;19.35;59.58
80627;BME280;69982;51.758;5.784;2023-09-19T10:06:14;100947.73;;;19.46;59.88
80627;BME280;69982;51.758;5.784;2023-09-19T10:09:07;100945.36;;;19.58;59.65
80627;BME280;69982;51.758;5.784;2023-09-19T10:11:46;100959.39;;;19.70;59.54
80627;BME280;69982;51.758;5.784;2023-09-19T10:14:17;100952.59;;;19.79;57.99
80627;BME280;69982;51.758;5.784;2023-09-19T10:16:53;100937.27;;;19.75;57.24
80627;BME280;69982;51.758;5.784;2023-09-19T10:19:36;100935.34;;;19.77;57.40
80627;BME280;69982;51.758;5.784;2023-09-19T10:22:05;100936.98;;;19.80;57.58
80627;BME280;69982;51.758;5.784;2023-09-19T10:24:36;100937.87;;;19.80;57.37
80627;BME280;69982;51.758;5.784;2023-09-19T10:27:09;100929.77;;;19.80;56.55
80627;BME280;69982;51.758;5.784;2023-09-19T10:29:39;100934.77;;;19.81;56.57
80627;BME280;69982;51.758;5.784;2023-09-19T10:32:07;100933.98;;;19.77;56.59
80627;BME280;69982;51.758;5.784;2023-09-19T10:34:36;100932.89;;;19.77;57.00
80627;BME280;69982;51.758;5.784;2023-09-19T10:37:05;100931.39;;;19.78;56.81
80627;BME280;69982;51.758;5.784;2023-09-19T10:39:39;100927.71;;;19.76;56.40
80627;BME280;69982;51.758;5.784;2023-09-19T10:42:11;100934.30;;;19.79;56.25
80627;BME280;69982;51.758;5.784;2023-09-19T10:44:45;100927.64;;;19.82;56.56
80627;BME280;69982;51.758;5.784;2023-09-19T10:47:14;100928.34;;;19.85;56.13
80627;BME280;69982;51.758;5.784;2023-09-19T10:49:46;100934.92;;;19.87;56.40
80627;BME280;69982;51.758;5.784;2023-09-19T10:52:18;100927.23;;;19.90;56.38
80627;BME280;69982;51.758;5.784;2023-09-19T10:54:48;100925.05;;;19.91;55.67
80627;BME280;69982;51.758;5.784;2023-09-19T10:57:22;100930.42;;;19.88;55.75
80627;BME280;69982;51.758;5.784;2023-09-19T11:00:05;100928.94;;;19.88;56.16
80627;BME280;69982;51.758;5.784;2023-09-19T11:03:19;100925.05;;;19.91;56.66
80627;BME280;69982;51.758;5.784;2023-09-19T11:06:17;100919.89;;;19.94;56.01
80627;BME280;69982;51.758;5.784;2023-09-19T11:08:59;100928.21;;;19.98;55.02
80627;BME280;69982;51.758;5.784;2023-09-19T11:11:45;100910.64;;;19.96;55.39
80627;BME280;69982;51.758;5.784;2023-09-19T11:30:38;100889.96;;;20.41;54.04
80627;BME280;69982;51.758;5.784;2023-09-19T11:33:16;100883.21;;;20.46;53.45
80627;BME280;69982;51.758;5.784;2023-09-19T11:36:13;100884.61;;;20.53;53.14
80627;BME280;69982;51.758;5.784;2023-09-19T11:43:54;100858.56;;;20.69;53.65
80627;BME280;69982;51.758;5.784;2023-09-19T11:49:21;100854.01;;;20.93;51.80
80627;BME280;69982;51.758;5.784;2023-09-19T11:51:54;100854.13;;;21.05;52.54
80627;BME280;69982;51.758;5.784;2023-09-19T11:54:22;100852.45;;;21.10;51.49
80627;BME280;69982;51.758;5.784;2023-09-19T11:56:52;100855.58;;;21.13;52.29
80627;BME280;69982;51.758;5.784;2023-09-19T11:59:29;100859.20;;;21.15;52.15
80627;BME280;69982;51.758;5.784;2023-09-19T12:01:59;100851.88;;;21.16;51.87
80627;BME280;69982;51.758;5.784;2023-09-19T12:04:39;100849.08;;;21.16;51.24
80627;BME280;69982;51.758;5.784;2023-09-19T12:07:08;100855.04;;;21.22;51.16
80627;BME280;69982;51.758;5.784;2023-09-19T12:10:04;100846.77;;;21.25;50.54
80627;BME280;69982;51.758;5.784;2023-09-19T12:12:32;100857.45;;;21.26;49.63
80627;BME280;69982;51.758;5.784;2023-09-19T12:15:02;100850.33;;;21.21;49.84
80627;BME280;69982;51.758;5.784;2023-09-19T12:17:37;100844.38;;;21.21;50.71
80627;BME280;69982;51.758;5.784;2023-09-19T12:20:07;100847.55;;;21.34;50.65
80627;BME280;69982;51.758;5.784;2023-09-19T12:22:45;100847.06;;;21.42;50.15
80627;BME280;69982;51.758;5.784;2023-09-19T12:25:14;100824.88;;;21.49;49.24
80627;BME280;69982;51.758;5.784;2023-09-19T12:27:48;100836.80;;;21.53;49.39
80627;BME280;69982;51.758;5.784;2023-09-19T12:30:17;100836.90;;;21.59;49.09
80627;BME280;69982;51.758;5.784;2023-09-19T12:32:52;100844.23;;;21.65;49.12
80627;BME280;69982;51.758;5.784;2023-09-19T12:35:30;100848.16;;;21.67;49.23
80627;BME280;69982;51.758;5.784;2023-09-19T12:37:58;100851.73;;;21.62;48.27
80627;BME280;69982;51.758;5.784;2023-09-19T12:40:26;100848.20;;;21.52;49.26
80627;BME280;69982;51.758;5.784;2023-09-19T12:43:00;100848.23;;;21.48;49.81
80627;BME280;69982;51.758;5.784;2023-09-19T12:45:31;100849.19;;;21.38;49.18
80627;BME280;69982;51.758;5.784;2023-09-19T12:48:21;100850.55;;;21.24;49.54
80627;BME280;69982;51.758;5.784;2023-09-19T12:51:12;100862.22;;;21.10;49.64
80627;BME280;69982;51.758;5.784;2023-09-19T12:53:42;100869.98;;;20.95;50.39
80627;BME280;69982;51.758;5.784;2023-09-19T12:56:13;100863.67;;;20.83;50.37
80627;BME280;69982;51.758;5.784;2023-09-19T13:01:17;100858.45;;;20.61;51.58
80627;BME280;69982;51.758;5.784;2023-09-19T13:03:45;100845.57;;;20.53;51.52
80627;BME280;69982;51.758;5.784;2023-09-19T13:06:15;100855.02;;;20.47;52.11
80627;BME280;69982;51.758;5.784;2023-09-19T13:08:44;100854.51;;;20.44;52.31
80627;BME280;69982;51.758;5.784;2023-09-19T13:11:17;100846.80;;;20.46;52.43
80627;BME280;69982;51.758;5.784;2023-09-19T13:14:13;100854.52;;;20.47;52.51
80627;BME280;69982;51.758;5.784;2023-09-19T13:16:55;100854.55;;;20.47;52.68
80627;BME280;69982;51.758;5.784;2023-09-19T13:22:39;100852.12;;;20.41;52.81
80627;BME280;69982;51.758;5.784;2023-09-19T13:25:09;100841.86;;;20.38;53.30
80627;BME280;69982;51.758;5.784;2023-09-19T13:27:42;100844.77;;;20.36;53.27
80627;BME280;69982;51.758;5.784;2023-09-19T13:30:11;100849.17;;;20.36;53.45
80627;BME280;69982;51.758;5.784;2023-09-19T13:32:39;100852.34;;;20.38;53.46
80627;BME280;69982;51.758;5.784;2023-09-19T13:35:08;100844.25;;;20.37;53.76
80627;BME280;69982;51.758;5.784;2023-09-19T13:37:40;100850.60;;;20.34;53.28
80627;BME280;69982;51.758;5.784;2023-09-19T13:40:10;100847.48;;;20.29;53.09
80627;BME280;69982;51.758;5.784;2023-09-19T13:42:38;100850.13;;;20.24;53.18
80627;BME280;69982;51.758;5.784;2023-09-19T13:45:07;100851.70;;;20.19;53.70